Time;durP1;ratioP1;P1;durP2;ratioP2;P2;SDS_P1;SDS_P2;PMS_P1;PMS_P2;Temp;Humidity;BMP_temperature;BMP_pressure;BME280_temperature;BME280_humidity;BME280_pressure;Samples;Min_cycle;Max_cycle;Signal;HPM_P1;HPM_P2
2022/11/14 00:00:57;;;;;;;;;0.00;0.00;;;;;;;;4755804;30;27864;-95
2022/11/14 00:03:27;;;;;;;;;0.00;0.00;;;;;;;;4747164;29;28428;-95
2022/11/14 00:05:55;;;;;;;;;0.00;0.00;;;;;;;;4738400;30;29944;-95
2022/11/14 00:08:22;;;;;;;;;0.00;0.00;;;;;;;;4735581;30;28601;-95
2022/11/14 00:11:01;;;;;;;;;0.00;0.00;;;;;;;;4753648;29;28494;-95
2022/11/14 00:13:28;;;;;;;;;0.00;0.00;;;;;;;;4749012;29;28174;-95
2022/11/14 00:16:03;;;;;;;;;;;;;;;;;;;;;
2022/11/14 00:18:39;;;;;;;;;0.00;0.00;;;;;;;;4768111;29;36694;-95
2022/11/14 00:21:11;;;;;;;;;0.00;0.00;;;;;;;;4750952;29;28453;-94
2022/11/14 00:23:43;;;;;;;;;0.00;0.00;;;;;;;;4754439;30;8871;-95
2022/11/14 00:26:11;;;;;;;;;0.00;0.00;;;;;;;;4766109;29;28665;-96
2022/11/14 00:28:39;;;;;;;;;0.00;0.00;;;;;;;;4748517;30;28850;-95
2022/11/14 00:31:09;;;;;;;;;0.00;0.00;;;;;;;;4753042;30;24951;-95
2022/11/14 00:33:57;;;;;;;;;0.00;0.00;;;;;;;;4745827;30;29692;-95
2022/11/14 00:36:25;;;;;;;;;0.00;0.00;;;;;;;;4768444;30;9811;-94
2022/11/14 00:39:08;;;;;;;;;;;;;;;;;;;;;
2022/11/14 00:41:36;;;;;;;;;0.00;0.00;;;;;;;;4767722;29;36683;-95
2022/11/14 00:44:07;;;;;;;;;0.00;0.00;;;;;;;;4765887;29;28672;-94
2022/11/14 00:46:45;;;;;;;;;0.00;0.00;;;;;;;;4771353;29;8861;-95
2022/11/14 00:49:26;;;;;;;;;0.00;0.00;;;;;;;;4755704;29;28034;-95
2022/11/14 00:51:54;;;;;;;;;0.00;0.00;;;;;;;;4752247;30;27842;-95
2022/11/14 00:54:22;;;;;;;;;0.00;0.00;;;;;;;;4755772;29;26908;-95
2022/11/14 00:57:08;;;;;;;;;10.00;10.00;;;;;;;;4758771;29;8869;-96
2022/11/14 00:59:36;;;;;;;;;0.00;0.00;;;;;;;;4759138;30;27677;-96
2022/11/14 01:02:21;;;;;;;;;0.00;0.00;;;;;;;;4754609;30;28592;-95
2022/11/14 01:04:46;;;;;;;;;0.00;0.00;;;;;;;;4777695;29;8809;-95
2022/11/14 01:07:19;;;;;;;;;0.00;0.00;;;;;;;;4777407;29;18099;-95
2022/11/14 01:09:47;;;;;;;;;0.00;0.00;;;;;;;;4773859;29;29021;-95
2022/11/14 01:12:12;;;;;;;;;0.00;0.00;;;;;;;;4779646;29;8829;-94
2022/11/14 01:14:38;;;;;;;;;0.00;0.00;;;;;;;;4777792;29;20572;-95
2022/11/14 01:17:11;;;;;;;;;0.00;0.00;;;;;;;;4769912;29;26987;-95
2022/11/14 01:19:46;;;;;;;;;0.00;0.00;;;;;;;;4755560;29;8852;-94
2022/11/14 01:22:20;;;;;;;;;0.00;0.00;;;;;;;;4766047;29;16365;-95
2022/11/14 01:24:54;;;;;;;;;0.00;0.00;;;;;;;;4772014;29;8868;-95
2022/11/14 01:27:19;;;;;;;;;0.00;0.00;;;;;;;;4771189;29;8850;-94
2022/11/14 01:29:44;;;;;;;;;0.00;0.00;;;;;;;;4756375;29;8885;-95
2022/11/14 01:32:10;;;;;;;;;0.00;0.00;;;;;;;;4767306;29;24859;-95
2022/11/14 01:34:55;;;;;;;;;0.00;0.00;;;;;;;;4753045;30;9601;-95
2022/11/14 01:37:24;;;;;;;;;0.00;0.00;;;;;;;;4753113;29;8864;-95
2022/11/14 01:39:55;;;;;;;;;0.33;0.33;;;;;;;;4752107;30;24638;-95
2022/11/14 01:42:22;;;;;;;;;0.00;0.00;;;;;;;;4761341;29;28247;-94
2022/11/14 01:44:56;;;;;;;;;0.00;0.00;;;;;;;;4768692;29;26612;-95
2022/11/14 01:47:26;;;;;;;;;0.00;0.00;;;;;;;;4758458;30;25061;-96
2022/11/14 01:50:08;;;;;;;;;0.00;0.00;;;;;;;;4761084;29;26634;-95
2022/11/14 01:52:39;;;;;;;;;0.00;0.00;;;;;;;;4756239;30;26379;-95
2022/11/14 01:55:11;;;;;;;;;0.00;0.00;;;;;;;;4759507;29;24218;-94
2022/11/14 01:57:42;;;;;;;;;0.00;0.00;;;;;;;;4757344;30;30039;-95
2022/11/14 02:00:11;;;;;;;;;0.00;0.00;;;;;;;;4751227;30;27928;-95
2022/11/14 02:02:37;;;;;;;;;0.00;0.00;;;;;;;;4739193;30;27993;-95
2022/11/14 02:05:09;;;;;;;;;0.00;0.00;;;;;;;;4750872;30;26575;-95
2022/11/14 02:07:44;;;;;;;;;0.00;0.00;;;;;;;;4740855;29;29857;-94
2022/11/14 02:10:25;;;;;;;;;0.00;0.00;;;;;;;;4752488;30;26229;-95
2022/11/14 02:12:56;;;;;;;;;0.00;0.00;;;;;;;;4746541;29;29471;-95
2022/11/14 02:15:26;;;;;;;;;0.00;0.00;;;;;;;;4763967;29;28272;-95
2022/11/14 02:17:54;;;;;;;;;0.00;0.00;;;;;;;;4757006;29;29871;-95
2022/11/14 02:20:23;;;;;;;;;0.00;0.00;;;;;;;;4765543;29;26529;-95
2022/11/14 02:22:50;;;;;;;;;0.00;0.00;;;;;;;;4745614;30;29290;-94
2022/11/14 02:25:17;;;;;;;;;0.00;0.00;;;;;;;;4741400;30;27870;-96
2022/11/14 02:27:42;;;;;;;;;32.25;32.25;;;;;;;;4745339;29;29946;-94
2022/11/14 02:30:10;;;;;;;;;0.00;0.00;;;;;;;;4740117;29;28978;-94
2022/11/14 02:32:38;;;;;;;;;0.00;0.00;;;;;;;;4746640;30;28415;-94
2022/11/14 02:35:24;;;;;;;;;0.00;0.00;;;;;;;;4751023;30;26616;-94
2022/11/14 02:37:49;;;;;;;;;0.00;0.00;;;;;;;;4744918;29;30563;-95
2022/11/14 02:40:35;;;;;;;;;0.00;0.00;;;;;;;;4758400;29;28957;-94
2022/11/14 02:43:03;;;;;;;;;0.00;0.00;;;;;;;;4743665;30;8856;-95
2022/11/14 02:45:31;;;;;;;;;0.00;0.00;;;;;;;;4756132;29;25776;-95
2022/11/14 02:47:56;;;;;;;;;0.00;0.00;;;;;;;;4735021;30;30429;-94
2022/11/14 02:50:21;;;;;;;;;0.00;0.00;;;;;;;;4735022;30;28917;-94
2022/11/14 02:52:47;;;;;;;;;0.00;0.00;;;;;;;;4740656;29;28306;-95
2022/11/14 02:55:14;;;;;;;;;0.00;0.00;;;;;;;;4747239;30;28133;-94
2022/11/14 02:57:40;;;;;;;;;0.00;0.00;;;;;;;;4747508;30;27860;-94
2022/11/14 03:00:05;;;;;;;;;1.00;1.00;;;;;;;;4716572;30;28706;-95
2022/11/14 03:02:39;;;;;;;;;0.00;0.00;;;;;;;;4753184;30;24085;-95
2022/11/14 03:05:15;;;;;;;;;0.00;0.00;;;;;;;;4733702;30;28995;-95
2022/11/14 03:07:43;;;;;;;;;0.00;0.00;;;;;;;;4730824;30;30181;-94
2022/11/14 03:10:17;;;;;;;;;0.00;0.00;;;;;;;;4743900;30;28721;-94
2022/11/14 03:12:43;;;;;;;;;0.00;0.00;;;;;;;;4751307;30;24191;-95
2022/11/14 03:15:08;;;;;;;;;0.00;0.00;;;;;;;;4730204;30;28624;-95
2022/11/14 03:17:36;;;;;;;;;0.00;0.00;;;;;;;;4740919;30;29853;-94
2022/11/14 03:20:04;;;;;;;;;0.00;0.00;;;;;;;;4736335;30;29026;-95
2022/11/14 03:22:30;;;;;;;;;0.00;0.00;;;;;;;;4751080;30;28624;-95
2022/11/14 03:24:55;;;;;;;;;0.00;0.00;;;;;;;;4757831;30;26689;-95
2022/11/14 03:27:40;;;;;;;;;0.00;0.00;;;;;;;;4757818;30;30341;-95
2022/11/14 03:30:16;;;;;;;;;;;;;;;;;;;;;
2022/11/14 03:32:47;;;;;;;;;0.00;0.00;;;;;;;;4761642;30;35688;-95
2022/11/14 03:35:20;;;;;;;;;0.00;0.00;;;;;;;;4742532;30;28524;-96
2022/11/14 03:37:48;;;;;;;;;0.00;0.00;;;;;;;;4741248;30;29848;-95
2022/11/14 03:40:16;;;;;;;;;0.00;0.00;;;;;;;;4751067;30;28812;-95
2022/11/14 03:42:44;;;;;;;;;0.00;0.00;;;;;;;;4747247;30;28580;-94
2022/11/14 03:45:12;;;;;;;;;0.00;0.00;;;;;;;;4734906;30;28686;-95
2022/11/14 03:47:37;;;;;;;;;0.00;0.00;;;;;;;;4733794;30;29977;-94
2022/11/14 03:50:03;;;;;;;;;0.00;0.00;;;;;;;;4735781;30;29080;-94
2022/11/14 03:52:41;;;;;;;;;0.00;0.00;;;;;;;;4736759;30;28534;-94
2022/11/14 03:55:09;;;;;;;;;0.00;0.00;;;;;;;;4732134;30;28623;-95
2022/11/14 03:57:37;;;;;;;;;0.00;0.00;;;;;;;;4738173;30;30225;-95
2022/11/14 04:00:02;;;;;;;;;0.00;0.00;;;;;;;;4746331;30;28984;-95
2022/11/14 04:02:31;;;;;;;;;0.00;0.00;;;;;;;;4740890;30;28330;-94
2022/11/14 04:04:56;;;;;;;;;0.00;0.00;;;;;;;;4742072;30;27905;-95
2022/11/14 04:07:24;;;;;;;;;0.00;0.00;;;;;;;;4736091;30;30839;-95
2022/11/14 04:10:09;;;;;;;;;0.00;0.00;;;;;;;;4739049;30;28931;-95
2022/11/14 04:12:48;;;;;;;;;0.00;0.00;;;;;;;;4744467;30;27970;-95
2022/11/14 04:15:34;;;;;;;;;0.00;0.00;;;;;;;;4733044;30;27959;-95
2022/11/14 04:18:02;;;;;;;;;0.00;0.00;;;;;;;;4753163;29;29923;-94
2022/11/14 04:20:29;;;;;;;;;0.00;0.00;;;;;;;;4734847;30;28995;-95
2022/11/14 04:23:00;;;;;;;;;0.00;0.00;;;;;;;;4743317;30;28660;-95
2022/11/14 04:25:28;;;;;;;;;0.00;0.00;;;;;;;;4743408;30;27906;-95
2022/11/14 04:28:15;;;;;;;;;4.00;4.00;;;;;;;;4736697;30;30029;-96
2022/11/14 04:31:02;;;;;;;;;0.00;0.00;;;;;;;;4731644;30;28647;-95
2022/11/14 04:33:39;;;;;;;;;0.00;0.00;;;;;;;;4742838;30;28492;-95
2022/11/14 04:36:30;;;;;;;;;0.00;0.00;;;;;;;;4733603;30;28496;-95
2022/11/14 04:39:06;;;;;;;;;0.00;0.00;;;;;;;;4736498;30;30453;-95
2022/11/14 04:41:34;;;;;;;;;0.00;0.00;;;;;;;;4737733;30;30117;-95
2022/11/14 04:44:02;;;;;;;;;0.00;0.00;;;;;;;;4754264;30;28616;-95
2022/11/14 04:46:32;;;;;;;;;0.00;0.00;;;;;;;;4743502;30;29407;-94
2022/11/14 04:49:03;;;;;;;;;0.00;0.00;;;;;;;;4746728;30;30036;-95
2022/11/14 04:51:33;;;;;;;;;0.00;0.00;;;;;;;;4747853;30;28746;-96
2022/11/14 04:54:01;;;;;;;;;0.00;0.00;;;;;;;;4746342;30;28347;-96
2022/11/14 04:56:28;;;;;;;;;0.00;0.00;;;;;;;;4726668;30;28731;-94
2022/11/14 04:58:54;;;;;;;;;0.00;0.00;;;;;;;;4734668;30;29735;-95
2022/11/14 05:01:21;;;;;;;;;0.00;0.00;;;;;;;;4738511;30;28453;-95
2022/11/14 05:03:52;;;;;;;;;0.00;0.00;;;;;;;;4729854;30;28555;-96
2022/11/14 05:06:22;;;;;;;;;0.00;0.00;;;;;;;;4733971;30;28036;-94
2022/11/14 05:08:47;;;;;;;;;0.00;0.00;;;;;;;;4744483;30;30363;-95
2022/11/14 05:11:29;;;;;;;;;0.00;0.00;;;;;;;;4731797;30;28936;-95
2022/11/14 05:13:59;;;;;;;;;0.00;0.00;;;;;;;;4730926;30;27942;-95
2022/11/14 05:16:34;;;;;;;;;0.00;0.00;;;;;;;;4744768;30;28296;-95
2022/11/14 05:19:03;;;;;;;;;0.00;0.00;;;;;;;;4730928;30;30422;-95
2022/11/14 05:21:31;;;;;;;;;0.00;0.00;;;;;;;;4733256;30;29783;-95
2022/11/14 05:23:58;;;;;;;;;0.00;0.00;;;;;;;;4748435;30;28348;-95
2022/11/14 05:26:26;;;;;;;;;0.00;0.00;;;;;;;;4740998;30;28384;-94
2022/11/14 05:32:24;;;;;;;;;;;;;;;;;;;;;
2022/11/14 05:34:42;;;;;;;;;0.00;0.00;;;;;;;;4731642;30;28449;-95
2022/11/14 05:37:34;;;;;;;;;0.00;0.00;;;;;;;;4748603;30;28540;-96
2022/11/14 05:40:08;;;;;;;;;0.00;0.00;;;;;;;;4749419;30;30387;-95
2022/11/14 05:42:46;;;;;;;;;0.00;0.00;;;;;;;;4748993;30;28388;-95
2022/11/14 05:45:17;;;;;;;;;0.00;0.00;;;;;;;;4740432;30;28446;-95
2022/11/14 05:47:57;;;;;;;;;0.00;0.00;;;;;;;;4733645;30;28429;-95
2022/11/14 05:50:30;;;;;;;;;0.00;0.00;;;;;;;;4734397;30;30069;-95
2022/11/14 05:52:55;;;;;;;;;0.00;0.00;;;;;;;;4746082;30;28582;-95
2022/11/14 05:55:28;;;;;;;;;0.00;0.00;;;;;;;;4754610;30;28366;-94
2022/11/14 05:57:56;;;;;;;;;0.00;0.00;;;;;;;;4756380;30;28463;-94
2022/11/14 06:00:26;;;;;;;;;0.00;0.00;;;;;;;;4739924;30;30948;-95
2022/11/14 06:03:02;;;;;;;;;;;;;;;;;;;;;
2022/11/14 06:05:31;;;;;;;;;0.00;0.00;;;;;;;;4740239;30;53304;-94
2022/11/14 06:08:07;;;;;;;;;0.00;0.00;;;;;;;;4741183;30;28580;-95
2022/11/14 06:10:54;;;;;;;;;;;;;;;;;;;;;
2022/11/14 06:13:29;;;;;;;;;;;;;;;;;;;;;
2022/11/14 06:16:31;;;;;;;;;0.00;0.00;;;;;;;;4736049;30;54565;-96
2022/11/14 06:19:04;;;;;;;;;0.00;0.00;;;;;;;;4685669;30;28736;-96
2022/11/14 06:21:29;;;;;;;;;0.00;0.00;;;;;;;;4675697;30;29988;-95
2022/11/14 06:23:59;;;;;;;;;0.00;0.00;;;;;;;;4667185;30;28795;-96
2022/11/14 06:26:47;;;;;;;;;0.00;0.00;;;;;;;;4684777;30;28537;-95
2022/11/14 06:29:16;;;;;;;;;0.00;0.00;;;;;;;;4694667;30;28540;-96
2022/11/14 06:31:42;;;;;;;;;0.00;0.00;;;;;;;;4675926;30;30263;-95
2022/11/14 06:34:07;;;;;;;;;0.00;0.00;;;;;;;;4672575;30;28839;-93
2022/11/14 06:36:32;;;;;;;;;0.00;0.00;;;;;;;;4693762;30;28662;-95
2022/11/14 06:38:58;;;;;;;;;0.00;0.00;;;;;;;;4677311;30;28550;-96
2022/11/14 06:41:23;;;;;;;;;0.00;0.00;;;;;;;;4665321;30;29690;-93
2022/11/14 06:43:54;;;;;;;;;0.00;0.00;;;;;;;;4678947;30;29793;-95
2022/11/14 06:46:23;;;;;;;;;0.00;0.00;;;;;;;;4679051;30;28389;-94
2022/11/14 06:48:51;;;;;;;;;0.00;0.00;;;;;;;;4693252;30;28612;-94
2022/11/14 06:51:17;;;;;;;;;0.00;0.00;;;;;;;;4729936;30;30229;-95
2022/11/14 06:56:32;;;;;;;;;0.00;0.00;;;;;;;;4748612;30;28448;-96
2022/11/14 06:59:06;;;;;;;;;0.00;0.00;;;;;;;;4735061;30;28645;-95
2022/11/14 07:01:34;;;;;;;;;0.00;0.00;;;;;;;;4737543;30;29898;-94
2022/11/14 07:04:03;;;;;;;;;0.00;0.00;;;;;;;;4741203;30;28819;-96
2022/11/14 07:06:29;;;;;;;;;0.00;0.00;;;;;;;;4755632;30;27996;-95
2022/11/14 07:09:21;;;;;;;;;0.00;0.00;;;;;;;;4753917;30;28443;-95
2022/11/14 07:11:46;;;;;;;;;0.00;0.00;;;;;;;;4743797;30;30005;-95
2022/11/14 07:14:14;;;;;;;;;0.00;0.00;;;;;;;;4737847;30;28328;-95
2022/11/14 07:16:47;;;;;;;;;0.00;0.00;;;;;;;;4752836;30;25788;-96
2022/11/14 07:19:20;;;;;;;;;0.00;0.00;;;;;;;;4753267;30;26604;-94
2022/11/14 07:21:45;;;;;;;;;0.00;0.00;;;;;;;;4735297;30;31416;-87
2022/11/14 07:24:11;;;;;;;;;0.00;0.00;;;;;;;;4751243;30;29105;-92
2022/11/14 07:26:36;;;;;;;;;0.00;0.00;;;;;;;;4767109;30;25566;-88
2022/11/14 07:29:01;;;;;;;;;0.00;0.00;;;;;;;;4767786;29;26495;-88
2022/11/14 07:31:26;;;;;;;;;0.00;0.00;;;;;;;;4749911;30;28699;-87
2022/11/14 07:33:51;;;;;;;;;0.00;0.00;;;;;;;;4735108;30;29357;-90
2022/11/14 07:36:16;;;;;;;;;0.00;0.00;;;;;;;;4734103;30;28416;-90
2022/11/14 07:38:42;;;;;;;;;0.00;0.00;;;;;;;;4734218;30;28331;-89
2022/11/14 07:41:08;;;;;;;;;0.00;0.00;;;;;;;;4744859;30;29948;-90
2022/11/14 07:43:34;;;;;;;;;0.00;0.00;;;;;;;;4752789;30;26556;-90
2022/11/14 07:46:00;;;;;;;;;0.00;0.00;;;;;;;;4740823;29;28592;-89
2022/11/14 07:48:25;;;;;;;;;0.00;0.00;;;;;;;;4775058;29;28369;-90
2022/11/14 07:50:50;;;;;;;;;0.00;0.00;;;;;;;;4778340;29;28318;-89
2022/11/14 07:53:16;;;;;;;;;0.00;0.00;;;;;;;;4751987;29;28520;-90
2022/11/14 07:55:42;;;;;;;;;0.00;0.00;;;;;;;;4745982;30;28549;-89
2022/11/14 07:58:07;;;;;;;;;0.00;0.00;;;;;;;;4738285;30;28596;-89
2022/11/14 08:00:32;;;;;;;;;0.00;0.00;;;;;;;;4740287;30;30193;-90
2022/11/14 08:02:57;;;;;;;;;0.00;0.00;;;;;;;;4740457;30;28545;-90
2022/11/14 08:05:22;;;;;;;;;0.00;0.00;;;;;;;;4735060;30;28398;-90
2022/11/14 08:07:51;;;;;;;;;0.00;0.00;;;;;;;;4750525;30;8830;-90
2022/11/14 08:10:17;;;;;;;;;0.00;0.00;;;;;;;;4746236;30;8872;-90
2022/11/14 08:12:42;;;;;;;;;0.00;0.00;;;;;;;;4756371;30;27390;-90
2022/11/14 08:15:08;;;;;;;;;0.00;0.00;;;;;;;;4732565;30;28584;-88
2022/11/14 08:17:34;;;;;;;;;0.00;0.00;;;;;;;;4733326;30;28640;-88
2022/11/14 08:19:59;;;;;;;;;0.00;0.00;;;;;;;;4739936;30;30106;-89
2022/11/14 08:22:24;;;;;;;;;5.00;5.00;;;;;;;;4759320;30;27400;-90
2022/11/14 08:24:49;;;;;;;;;0.00;0.00;;;;;;;;4737195;30;28517;-90
2022/11/14 08:27:15;;;;;;;;;0.00;0.00;;;;;;;;4730356;30;28378;-90
2022/11/14 08:29:40;;;;;;;;;0.00;0.00;;;;;;;;4732280;30;30203;-90
2022/11/14 08:32:05;;;;;;;;;0.00;0.00;;;;;;;;4733758;30;28884;-90
2022/11/14 08:34:30;;;;;;;;;0.00;0.00;;;;;;;;4741698;30;28520;-89
2022/11/14 08:36:56;;;;;;;;;0.00;0.00;;;;;;;;4744981;30;28377;-89
2022/11/14 08:39:21;;;;;;;;;0.00;0.00;;;;;;;;4729437;30;30347;-89
2022/11/14 08:41:47;;;;;;;;;0.00;0.00;;;;;;;;4730937;30;28664;-88
2022/11/14 08:44:12;;;;;;;;;0.00;0.00;;;;;;;;4741802;30;27933;-86
2022/11/14 08:46:37;;;;;;;;;0.67;0.67;;;;;;;;4755237;30;9514;-88
2022/11/14 08:49:02;;;;;;;;;0.00;0.00;;;;;;;;4753038;30;9387;-88
2022/11/14 08:51:27;;;;;;;;;0.00;0.00;;;;;;;;4757704;30;26592;-87
2022/11/14 08:53:53;;;;;;;;;0.00;0.00;;;;;;;;4748694;30;27892;-88
2022/11/14 08:56:18;;;;;;;;;0.00;0.00;;;;;;;;4752891;30;26466;-88
2022/11/14 08:58:43;;;;;;;;;0.00;0.00;;;;;;;;4730405;30;30014;-87
2022/11/14 09:01:08;;;;;;;;;0.00;0.00;;;;;;;;4730013;30;28423;-88
2022/11/14 09:03:34;;;;;;;;;0.00;0.00;;;;;;;;4755663;30;9098;-88
2022/11/14 09:05:59;;;;;;;;;0.00;0.00;;;;;;;;4751719;30;8916;-87
2022/11/14 09:08:25;;;;;;;;;0.00;0.00;;;;;;;;4750161;30;27981;-87
2022/11/14 09:10:50;;;;;;;;;0.00;0.00;;;;;;;;4740806;30;28507;-88
2022/11/14 09:13:15;;;;;;;;;0.00;0.00;;;;;;;;4739770;30;28438;-87
2022/11/14 09:15:41;;;;;;;;;0.00;0.00;;;;;;;;4737447;30;28700;-88
2022/11/14 09:18:08;;;;;;;;;0.00;0.00;;;;;;;;4747643;30;28385;-88
2022/11/14 09:20:33;;;;;;;;;0.00;0.00;;;;;;;;4748758;30;28559;-88
2022/11/14 09:22:58;;;;;;;;;0.00;0.00;;;;;;;;4736033;30;28683;-88
2022/11/14 09:25:25;;;;;;;;;0.00;0.00;;;;;;;;4751173;30;25678;-87
2022/11/14 09:27:50;;;;;;;;;0.00;0.00;;;;;;;;4743141;30;28817;-88
2022/11/14 09:30:15;;;;;;;;;0.00;0.00;;;;;;;;4751544;30;8882;-87
2022/11/14 09:32:40;;;;;;;;;0.00;0.00;;;;;;;;4753057;30;8863;-87
2022/11/14 09:35:06;;;;;;;;;0.00;0.00;;;;;;;;4757098;30;20429;-87
2022/11/14 09:37:31;;;;;;;;;0.00;0.00;;;;;;;;4751569;30;27821;-88
2022/11/14 09:39:57;;;;;;;;;0.00;0.00;;;;;;;;4755002;30;8901;-87
2022/11/14 09:42:37;;;;;;;;;0.00;0.00;;;;;;;;4755856;30;23316;-87
2022/11/14 09:45:05;;;;;;;;;0.00;0.00;;;;;;;;4753250;30;26763;-88
2022/11/14 09:47:35;;;;;;;;;0.00;0.00;;;;;;;;4758166;30;28494;-89
2022/11/14 09:50:04;;;;;;;;;0.00;0.00;;;;;;;;4727224;30;28525;-89
2022/11/14 09:52:43;;;;;;;;;0.00;0.00;;;;;;;;4756466;30;8844;-89
2022/11/14 09:55:09;;;;;;;;;0.00;0.00;;;;;;;;4762026;29;8884;-89
2022/11/14 09:57:34;;;;;;;;;0.00;0.00;;;;;;;;4766360;29;28050;-89
2022/11/14 10:00:00;;;;;;;;;0.00;0.00;;;;;;;;4763285;29;28022;-89
2022/11/14 10:02:49;;;;;;;;;0.00;0.00;;;;;;;;4752598;29;28753;-89
2022/11/14 10:05:14;;;;;;;;;0.00;0.00;;;;;;;;4753185;29;28475;-88
2022/11/14 10:07:57;;;;;;;;;0.00;0.00;;;;;;;;4768058;29;29821;-89
2022/11/14 10:10:28;;;;;;;;;0.00;0.00;;;;;;;;4731854;30;29054;-88
2022/11/14 10:13:04;;;;;;;;;0.00;0.00;;;;;;;;4740407;29;28546;-88
2022/11/14 10:15:50;;;;;;;;;0.00;0.00;;;;;;;;4741744;29;28644;-89
2022/11/14 10:18:18;;;;;;;;;0.00;0.00;;;;;;;;4770921;29;8864;-89
2022/11/14 10:20:49;;;;;;;;;0.00;0.00;;;;;;;;4749981;29;28288;-89
2022/11/14 10:23:25;;;;;;;;;0.00;0.00;;;;;;;;4735075;29;28423;-89
2022/11/14 10:26:05;;;;;;;;;0.00;0.00;;;;;;;;4740353;29;28597;-89
2022/11/14 10:28:49;;;;;;;;;0.00;0.00;;;;;;;;4746720;29;28727;-89
2022/11/14 10:31:14;;;;;;;;;0.00;0.00;;;;;;;;4773494;29;26616;-89
2022/11/14 10:33:58;;;;;;;;;0.00;0.00;;;;;;;;4756980;29;28600;-89
2022/11/14 10:36:26;;;;;;;;;0.00;0.00;;;;;;;;4770415;29;10495;-88
2022/11/14 10:38:58;;;;;;;;;0.00;0.00;;;;;;;;4753701;29;27903;-89
2022/11/14 10:41:24;;;;;;;;;0.00;0.00;;;;;;;;4745950;29;28638;-89
2022/11/14 10:43:50;;;;;;;;;0.00;0.00;;;;;;;;4745784;29;28541;-89
2022/11/14 10:46:15;;;;;;;;;0.00;0.00;;;;;;;;4756593;29;28900;-89
2022/11/14 10:48:42;;;;;;;;;0.00;0.00;;;;;;;;4773109;29;8910;-90
2022/11/14 10:51:13;;;;;;;;;0.00;0.00;;;;;;;;4765574;29;26450;-89
2022/11/14 10:53:58;;;;;;;;;0.00;0.00;;;;;;;;4734913;29;28578;-89
2022/11/14 10:56:23;;;;;;;;;0.00;0.00;;;;;;;;4740036;30;28636;-89
2022/11/14 10:58:48;;;;;;;;;0.00;0.00;;;;;;;;4729587;30;30429;-89
2022/11/14 11:01:33;;;;;;;;;0.00;0.00;;;;;;;;4736719;30;29287;-89
2022/11/14 11:04:09;;;;;;;;;0.00;0.00;;;;;;;;4736390;30;28498;-89
2022/11/14 11:06:35;;;;;;;;;0.00;0.00;;;;;;;;4729591;30;28542;-89
2022/11/14 11:11:54;;;;;;;;;3.00;3.00;;;;;;;;4725122;30;28592;-89
2022/11/14 11:14:20;;;;;;;;;0.00;0.00;;;;;;;;4731130;30;28441;-89
2022/11/14 11:16:45;;;;;;;;;51.00;48.00;;;;;;;;4728510;30;28542;-89
2022/11/14 11:19:20;;;;;;;;;0.00;0.00;;;;;;;;4733719;30;30176;-92
2022/11/14 11:21:50;;;;;;;;;0.00;0.00;;;;;;;;4744554;30;28547;-89
2022/11/14 11:24:32;;;;;;;;;0.00;0.00;;;;;;;;4752935;30;8955;-89
2022/11/14 11:27:15;;;;;;;;;0.00;0.00;;;;;;;;4755695;30;18906;-90
2022/11/14 11:29:41;;;;;;;;;0.00;0.00;;;;;;;;4753765;30;23383;-91
2022/11/14 11:32:07;;;;;;;;;0.00;0.00;;;;;;;;4742597;30;29070;-93
2022/11/14 11:34:33;;;;;;;;;0.00;0.00;;;;;;;;4753089;30;8853;-92
2022/11/14 11:37:04;;;;;;;;;0.00;0.00;;;;;;;;4749603;30;25652;-92
2022/11/14 11:39:32;;;;;;;;;0.00;0.00;;;;;;;;4754035;30;29455;-92
2022/11/14 11:42:00;;;;;;;;;0.00;0.00;;;;;;;;4753365;30;8849;-90
2022/11/14 11:44:33;;;;;;;;;0.00;0.00;;;;;;;;4749953;30;8866;-92
2022/11/14 11:46:59;;;;;;;;;0.00;0.00;;;;;;;;4766129;30;12679;-94
2022/11/14 11:49:28;;;;;;;;;0.00;0.00;;;;;;;;4752472;30;27960;-92
2022/11/14 11:51:54;;;;;;;;;0.00;0.00;;;;;;;;4757630;30;8912;-91
2022/11/14 11:54:21;;;;;;;;;0.00;0.00;;;;;;;;4752413;29;8982;-91
2022/11/14 11:56:50;;;;;;;;;0.00;0.00;;;;;;;;4758185;29;23482;-92
2022/11/14 11:59:34;;;;;;;;;0.00;0.00;;;;;;;;4771168;29;26478;-93
2022/11/14 12:02:01;;;;;;;;;0.00;0.00;;;;;;;;4776965;29;25158;-92
2022/11/14 12:04:26;;;;;;;;;0.00;0.00;;;;;;;;4756212;29;21941;-92
2022/11/14 12:07:03;;;;;;;;;0.00;0.00;;;;;;;;4763846;29;21870;-92
2022/11/14 12:09:31;;;;;;;;;0.00;0.00;;;;;;;;4761385;29;25356;-92
2022/11/14 12:12:00;;;;;;;;;0.00;0.00;;;;;;;;4755427;29;8888;-92
2022/11/14 12:14:31;;;;;;;;;0.00;0.00;;;;;;;;4756153;29;8860;-92
2022/11/14 12:16:56;;;;;;;;;0.00;0.00;;;;;;;;4752521;30;20566;-91
2022/11/14 12:19:21;;;;;;;;;0.00;0.00;;;;;;;;4771785;29;11734;-92
2022/11/14 12:21:50;;;;;;;;;0.00;0.00;;;;;;;;4769064;29;8877;-92
2022/11/14 12:24:18;;;;;;;;;0.00;0.00;;;;;;;;4761479;29;13848;-92
2022/11/14 12:26:46;;;;;;;;;0.00;0.00;;;;;;;;4756238;29;8869;-92
2022/11/14 12:29:11;;;;;;;;;0.00;0.00;;;;;;;;4780727;29;27848;-92
2022/11/14 12:31:38;;;;;;;;;0.00;0.00;;;;;;;;4761757;29;29996;-92
2022/11/14 12:34:06;;;;;;;;;0.00;0.00;;;;;;;;4758117;29;24876;-92
2022/11/14 12:36:33;;;;;;;;;10.00;10.00;;;;;;;;4773360;29;8886;-92
2022/11/14 12:38:59;;;;;;;;;0.00;0.00;;;;;;;;4774747;29;8865;-92
2022/11/14 12:41:30;;;;;;;;;0.00;0.00;;;;;;;;4775410;29;21777;-93
2022/11/14 12:44:27;;;;;;;;;0.00;0.00;;;;;;;;4757650;29;26906;-93
2022/11/14 12:47:02;;;;;;;;;0.00;0.00;;;;;;;;4714664;30;23720;-92
2022/11/14 12:49:36;;;;;;;;;0.00;0.00;;;;;;;;4718568;30;8863;-92
2022/11/14 12:52:01;;;;;;;;;0.00;0.00;;;;;;;;4704753;30;28760;-93
2022/11/14 12:54:42;;;;;;;;;0.00;0.00;;;;;;;;4706179;30;8872;-93
2022/11/14 12:57:46;;;;;;;;;0.00;0.00;;;;;;;;4699918;30;26661;-93
2022/11/14 13:00:01;;;;;;;;;0.00;0.00;;;;;;;;4703337;30;29093;-92
2022/11/14 13:02:48;;;;;;;;;0.00;0.00;;;;;;;;4707184;30;29453;-93
2022/11/14 13:05:18;;;;;;;;;0.00;0.00;;;;;;;;4647607;30;27351;-92
2022/11/14 13:07:46;;;;;;;;;0.00;0.00;;;;;;;;4617963;30;28812;-90
2022/11/14 13:10:26;;;;;;;;;0.00;0.00;;;;;;;;4643583;30;28506;-94
2022/11/14 13:21:45;;;;;;;;;0.00;0.00;;;;;;;;4640838;30;24442;-92
2022/11/14 13:24:15;;;;;;;;;0.00;0.00;;;;;;;;4687411;30;9357;-92
2022/11/14 13:26:49;;;;;;;;;0.00;0.00;;;;;;;;4692434;30;11588;-92
2022/11/14 13:29:33;;;;;;;;;0.00;0.00;;;;;;;;4691322;30;12224;-92
2022/11/14 13:31:58;;;;;;;;;0.00;0.00;;;;;;;;4675488;30;13247;-92
2022/11/14 13:34:29;;;;;;;;;0.00;0.00;;;;;;;;4687196;30;15011;-91
2022/11/14 13:37:13;;;;;;;;;12.00;12.00;;;;;;;;4674355;30;9884;-92
2022/11/14 13:39:47;;;;;;;;;0.00;0.00;;;;;;;;4692673;30;10240;-92
2022/11/14 13:42:18;;;;;;;;;0.00;0.00;;;;;;;;4724251;29;9966;-92
2022/11/14 13:45:02;;;;;;;;;0.00;0.00;;;;;;;;4751494;30;14257;-92
2022/11/14 13:47:42;;;;;;;;;0.00;0.00;;;;;;;;4758670;29;11734;-92
2022/11/14 13:50:29;;;;;;;;;0.00;0.00;;;;;;;;4761417;29;11689;-93
2022/11/14 13:52:54;;;;;;;;;0.00;0.00;;;;;;;;4772505;29;14171;-93
2022/11/14 13:55:31;;;;;;;;;0.00;0.00;;;;;;;;4773141;29;13200;-92
2022/11/14 13:58:20;;;;;;;;;0.00;0.00;;;;;;;;4755865;29;10789;-93
2022/11/14 14:01:00;;;;;;;;;0.00;0.00;;;;;;;;4761312;29;11863;-94
2022/11/14 14:03:33;;;;;;;;;0.00;0.00;;;;;;;;4754519;29;15729;-93
2022/11/14 14:06:08;;;;;;;;;0.00;0.00;;;;;;;;4767927;29;9681;-93
2022/11/14 14:08:52;;;;;;;;;0.00;0.00;;;;;;;;4755191;29;40445;-94
2022/11/14 14:11:25;;;;;;;;;0.00;0.00;;;;;;;;4761552;29;11682;-92
2022/11/14 14:14:02;;;;;;;;;0.00;0.00;;;;;;;;4770601;29;11679;-92
2022/11/14 14:16:46;;;;;;;;;0.00;0.00;;;;;;;;4782733;29;13748;-92
2022/11/14 14:19:11;;;;;;;;;0.00;0.00;;;;;;;;4769636;29;15650;-93
2022/11/14 14:22:02;;;;;;;;;0.00;0.00;;;;;;;;4760350;29;10130;-93
2022/11/14 14:24:46;;;;;;;;;0.00;0.00;;;;;;;;4752081;29;9982;-92
2022/11/14 14:27:31;;;;;;;;;0.00;0.00;;;;;;;;4776776;29;42498;-93
2022/11/14 14:30:10;;;;;;;;;0.00;0.00;;;;;;;;4758026;29;40295;-93
2022/11/14 14:32:35;;;;;;;;;0.00;0.00;;;;;;;;4758205;29;11669;-93
2022/11/14 14:35:19;;;;;;;;;0.00;0.00;;;;;;;;4755069;29;11706;-93
2022/11/14 14:37:51;;;;;;;;;0.00;0.00;;;;;;;;4758465;30;43152;-92
2022/11/14 14:40:23;;;;;;;;;0.00;0.00;;;;;;;;4752452;29;11705;-93
2022/11/14 14:42:48;;;;;;;;;0.00;0.00;;;;;;;;4757163;30;11725;-93
2022/11/14 14:45:18;;;;;;;;;0.00;0.00;;;;;;;;4768160;29;11678;-92
2022/11/14 14:47:45;;;;;;;;;0.00;0.00;;;;;;;;4747331;30;45471;-92
2022/11/14 14:50:18;;;;;;;;;0.00;0.00;;;;;;;;4753301;29;44673;-92
2022/11/14 14:52:44;;;;;;;;;0.00;0.00;;;;;;;;4755367;29;44916;-92
2022/11/14 14:55:17;;;;;;;;;0.00;0.00;;;;;;;;4743362;29;45467;-92
2022/11/14 14:57:42;;;;;;;;;0.00;0.00;;;;;;;;4779967;29;8876;-92
2022/11/14 15:00:20;;;;;;;;;0.00;0.00;;;;;;;;4760900;29;11709;-92
2022/11/14 15:02:46;;;;;;;;;0.00;0.00;;;;;;;;4766580;29;10159;-90
2022/11/14 15:05:20;;;;;;;;;0.00;0.00;;;;;;;;4764185;29;45498;-91
2022/11/14 15:07:46;;;;;;;;;0.00;0.00;;;;;;;;4777418;29;8881;-88
2022/11/14 15:10:18;;;;;;;;;0.00;0.00;;;;;;;;4773503;29;45564;-96
2022/11/14 15:12:44;;;;;;;;;0.00;0.00;;;;;;;;4750423;30;38377;-92
2022/11/14 15:15:11;;;;;;;;;0.00;0.00;;;;;;;;4757741;29;44824;-91
2022/11/14 15:17:37;;;;;;;;;0.00;0.00;;;;;;;;4764489;29;43178;-91
2022/11/14 15:20:02;;;;;;;;;0.00;0.00;;;;;;;;4746932;29;42460;-91
2022/11/14 15:22:28;;;;;;;;;0.00;0.00;;;;;;;;4759092;29;10665;-91
2022/11/14 15:25:03;;;;;;;;;0.00;0.00;;;;;;;;4766494;29;44759;-90
2022/11/14 15:27:29;;;;;;;;;0.00;0.00;;;;;;;;4775739;29;8961;-92
2022/11/14 15:29:57;;;;;;;;;0.00;0.00;;;;;;;;4762733;29;44946;-90